createdAt,value
2017-07-06T00:00:03.220Z,0
2017-07-06T00:05:03.032Z,0
2017-07-06T00:10:02.356Z,0
2017-07-06T00:15:02.621Z,0
2017-07-06T00:20:03.067Z,0
2017-07-06T00:25:02.464Z,0
2017-07-06T00:30:02.915Z,0
2017-07-06T00:35:02.335Z,0
2017-07-06T00:40:02.693Z,0
2017-07-06T00:45:03.168Z,0
2017-07-06T00:50:02.521Z,0
2017-07-06T00:55:03.119Z,0
2017-07-06T01:00:02.449Z,0
2017-07-06T01:05:02.752Z,0
2017-07-06T01:10:03.219Z,0
2017-07-06T01:15:02.705Z,0
2017-07-06T01:20:03.271Z,0
2017-07-06T01:25:02.585Z,0
2017-07-06T01:30:02.854Z,0
2017-07-06T01:35:03.150Z,0
2017-07-06T01:40:02.707Z,0
2017-07-06T01:45:03.315Z,0
2017-07-06T01:50:02.658Z,0
2017-07-06T01:55:03.105Z,0
2017-07-06T02:00:02.555Z,0
2017-07-06T02:05:02.946Z,0
2017-07-06T02:10:02.514Z,0
2017-07-06T02:15:02.837Z,0
2017-07-06T02:20:03.217Z,0
2017-07-06T02:25:02.554Z,0
2017-07-06T02:30:02.866Z,0
2017-07-06T02:35:03.238Z,0
2017-07-06T02:40:02.719Z,1
2017-07-06T02:45:02.959Z,2
2017-07-06T02:50:02.396Z,4
2017-07-06T02:55:02.817Z,9
2017-07-06T03:00:03.164Z,16
2017-07-06T03:05:02.583Z,36
2017-07-06T03:10:03.117Z,47
2017-07-06T03:15:02.551Z,56
2017-07-06T03:20:02.888Z,64
2017-07-06T03:25:03.237Z,76
2017-07-06T03:30:02.740Z,91
2017-07-06T03:35:03.254Z,127
2017-07-06T03:40:02.526Z,235
2017-07-06T03:45:02.992Z,330
2017-07-06T03:50:02.560Z,430
2017-07-06T03:55:02.903Z,560
2017-07-06T04:00:02.625Z,957
2017-07-06T04:05:02.931Z,1000
2017-07-06T04:10:03.290Z,1000
2017-07-06T04:15:02.579Z,1000
2017-07-06T04:20:03.013Z,1000
2017-07-06T04:25:02.361Z,1000
2017-07-06T04:30:03.066Z,1000
2017-07-06T04:35:02.589Z,1000
2017-07-06T04:40:03.096Z,1000
2017-07-06T04:45:02.466Z,1000
2017-07-06T04:50:02.962Z,1000
2017-07-06T04:55:02.434Z,1000
2017-07-06T05:00:02.842Z,1000
2017-07-06T05:05:02.368Z,2000
2017-07-06T05:10:02.850Z,2000
2017-07-06T05:15:03.137Z,2000
2017-07-06T05:20:02.653Z,2000
2017-07-06T05:25:03.124Z,2000
2017-07-06T05:30:02.423Z,2000
2017-07-06T05:35:02.675Z,2000
2017-07-06T05:40:03.227Z,2000
2017-07-06T05:45:02.734Z,2000
2017-07-06T05:50:03.265Z,2000
2017-07-06T05:55:02.736Z,2000
2017-07-06T06:00:02.998Z,2000
2017-07-06T06:05:03.258Z,2000
2017-07-06T06:10:02.643Z,2000
2017-07-06T06:15:02.893Z,2000
2017-07-06T06:20:03.331Z,3000
2017-07-06T06:25:02.797Z,3000
2017-07-06T06:30:03.060Z,4000
2017-07-06T06:35:02.355Z,4000
2017-07-06T06:40:02.837Z,3000
2017-07-06T06:45:03.201Z,3000
2017-07-06T06:50:02.660Z,3000
2017-07-06T06:55:02.971Z,3000
2017-07-06T07:00:03.246Z,3000
2017-07-06T07:05:02.720Z,3000
2017-07-06T07:10:03.010Z,3000
2017-07-06T07:15:02.479Z,3000
2017-07-06T07:20:02.745Z,3000
2017-07-06T07:25:03.056Z,4000
2017-07-06T07:30:02.709Z,4000
2017-07-06T07:35:03.136Z,4000
2017-07-06T07:40:02.431Z,4000
2017-07-06T07:45:02.682Z,17000
2017-07-06T07:50:03.010Z,34000
2017-07-06T07:55:02.400Z,37000
2017-07-06T08:00:02.843Z,38000
2017-07-06T08:05:02.380Z,40000
2017-07-06T08:10:02.799Z,42000
2017-07-06T08:15:03.070Z,45000
2017-07-06T08:20:02.558Z,45000
2017-07-06T08:25:02.913Z,46000
2017-07-06T08:30:03.223Z,46000
2017-07-06T08:35:02.737Z,47000
2017-07-06T08:40:03.292Z,50000
2017-07-06T08:45:02.726Z,31000
2017-07-06T08:50:03.127Z,45000
2017-07-06T08:55:02.431Z,53000
2017-07-06T09:00:02.960Z,51000
2017-07-06T09:05:02.484Z,53000
2017-07-06T09:10:02.776Z,29000
2017-07-06T09:15:03.270Z,51000
2017-07-06T09:20:02.715Z,51000
2017-07-06T09:25:03.150Z,52000
2017-07-06T09:30:02.323Z,59000
2017-07-06T09:35:02.638Z,40000
2017-07-06T09:40:03.040Z,21000
2017-07-06T09:45:02.485Z,30000
2017-07-06T09:50:02.859Z,59000
2017-07-06T09:55:02.355Z,54000
2017-07-06T10:00:02.668Z,54000
2017-07-06T10:05:03.180Z,50000
2017-07-06T10:10:02.481Z,50000
2017-07-06T10:15:02.926Z,51000
2017-07-06T10:20:03.278Z,50000
2017-07-06T10:25:02.598Z,51000
2017-07-06T10:30:03.087Z,50000
2017-07-06T10:35:02.449Z,49000
2017-07-06T10:40:02.991Z,49000
2017-07-06T10:45:02.476Z,50000
2017-07-06T10:50:02.842Z,50000
2017-07-06T10:55:03.222Z,50000
2017-07-06T11:00:02.648Z,53000
2017-07-06T11:05:02.986Z,55000
2017-07-06T11:10:02.563Z,52000
2017-07-06T11:15:02.885Z,54000
2017-07-06T11:20:03.207Z,37000
2017-07-06T11:25:02.678Z,55000
2017-07-06T11:30:03.154Z,34000
2017-07-06T11:35:02.487Z,23000
2017-07-06T11:40:02.803Z,19000
2017-07-06T11:45:03.256Z,17000
2017-07-06T11:50:02.512Z,19000
2017-07-06T11:55:02.994Z,50000
2017-07-06T12:00:02.462Z,48000
2017-07-06T12:05:02.828Z,48000
2017-07-06T12:10:03.318Z,44000
2017-07-06T12:15:02.822Z,47000
2017-07-06T12:20:03.293Z,46000
2017-07-06T12:25:02.728Z,25000
2017-07-06T12:30:03.084Z,47000
2017-07-06T12:35:02.430Z,22000
2017-07-06T12:40:02.903Z,30000
2017-07-06T12:45:03.177Z,16000
2017-07-06T12:50:02.416Z,40000
2017-07-06T12:55:02.660Z,21000
2017-07-06T13:00:02.879Z,33000
2017-07-06T13:05:02.351Z,21000
2017-07-06T13:10:02.740Z,21000
2017-07-06T13:15:03.080Z,18000
2017-07-06T13:20:02.628Z,29000
2017-07-06T13:25:02.995Z,14000
2017-07-06T13:30:02.475Z,12000
2017-07-06T13:35:02.925Z,13000
2017-07-06T13:40:03.249Z,19000
2017-07-06T13:45:02.687Z,16000
2017-07-06T13:50:03.139Z,15000
2017-07-06T13:55:02.419Z,32000
2017-07-06T14:00:02.922Z,20000
2017-07-06T14:05:02.398Z,32000
2017-07-06T14:10:02.864Z,39000
2017-07-06T14:15:02.386Z,29000
2017-07-06T14:20:02.695Z,16000
2017-07-06T14:25:03.235Z,13000
2017-07-06T14:30:02.701Z,14000
2017-07-06T14:35:03.241Z,12000
2017-07-06T14:40:02.767Z,13000
2017-07-06T14:45:03.200Z,18000
2017-07-06T14:50:02.688Z,23000
2017-07-06T14:55:02.985Z,16000
2017-07-06T15:00:03.328Z,13000
2017-07-06T15:05:02.854Z,14000
2017-07-06T15:10:03.182Z,8000
2017-07-06T15:15:02.645Z,7000
2017-07-06T15:20:03.055Z,8000
2017-07-06T15:25:02.520Z,9000
2017-07-06T15:30:02.751Z,8000
2017-07-06T15:35:03.304Z,8000
2017-07-06T15:40:02.815Z,6000
2017-07-06T15:45:03.050Z,5000
2017-07-06T15:50:02.631Z,6000
2017-07-06T15:55:03.108Z,9000
2017-07-06T16:00:02.575Z,7000
2017-07-06T16:05:02.908Z,5000
2017-07-06T16:10:02.424Z,5000
2017-07-06T16:15:02.835Z,6000
2017-07-06T16:20:03.312Z,5000
2017-07-06T16:25:02.702Z,5000
2017-07-06T16:30:03.244Z,5000
2017-07-06T16:35:02.801Z,5000
2017-07-06T16:40:03.120Z,5000
2017-07-06T16:45:02.391Z,5000
2017-07-06T16:50:02.667Z,5000
2017-07-06T16:55:03.165Z,4000
2017-07-06T17:00:02.668Z,3000
2017-07-06T17:05:03.189Z,2000
2017-07-06T17:10:02.518Z,1000
2017-07-06T17:15:02.921Z,1000
2017-07-06T17:20:02.445Z,2000
2017-07-06T17:25:02.918Z,2000
2017-07-06T17:30:03.262Z,1000
2017-07-06T17:35:02.772Z,1000
2017-07-06T17:40:03.305Z,2000
2017-07-06T17:45:02.757Z,2000
2017-07-06T17:50:03.275Z,1000
2017-07-06T17:55:02.777Z,1000
2017-07-06T18:00:03.027Z,923
2017-07-06T18:05:02.559Z,735
2017-07-06T18:10:03.079Z,980
2017-07-06T18:15:02.436Z,1000
2017-07-06T18:20:02.926Z,3000
2017-07-06T18:25:02.446Z,2000
2017-07-06T18:30:02.956Z,1000
2017-07-06T18:35:02.611Z,1000
2017-07-06T18:40:02.980Z,1000
2017-07-06T18:45:03.269Z,2000
2017-07-06T18:50:02.573Z,2000
2017-07-06T18:55:03.076Z,1000
2017-07-06T19:00:02.407Z,560
2017-07-06T19:05:02.790Z,336
2017-07-06T19:10:03.160Z,235
2017-07-06T19:15:02.603Z,143
2017-07-06T19:20:02.964Z,78
2017-07-06T19:25:02.470Z,63
2017-07-06T19:30:03.131Z,53
2017-07-06T19:35:02.487Z,34
2017-07-06T19:40:03.056Z,28
2017-07-06T19:45:02.582Z,30
2017-07-06T19:50:03.366Z,43
2017-07-06T19:55:03.436Z,44
2017-07-06T20:00:02.686Z,29
2017-07-06T20:05:03.214Z,15
2017-07-06T20:10:02.585Z,5
2017-07-06T20:15:03.011Z,1
2017-07-06T20:20:02.525Z,0
2017-07-06T20:25:02.920Z,0
2017-07-06T20:30:02.364Z,0
2017-07-06T20:35:02.921Z,0
2017-07-06T20:40:02.512Z,0
2017-07-06T20:45:02.798Z,0
2017-07-06T21:05:03.255Z,0
2017-07-06T21:10:02.765Z,0
2017-07-06T21:15:03.112Z,0
2017-07-06T21:20:02.573Z,0
2017-07-06T21:25:03.189Z,0
2017-07-06T21:30:02.443Z,0
2017-07-06T21:35:02.854Z,0
2017-07-06T21:40:03.116Z,0
2017-07-06T21:45:02.596Z,0
2017-07-06T21:50:03.081Z,0
2017-07-06T21:55:02.472Z,0
2017-07-06T22:00:03.029Z,0
2017-07-06T22:05:02.374Z,0
2017-07-06T22:10:02.874Z,0
2017-07-06T22:15:02.354Z,0
2017-07-06T22:20:02.869Z,0
2017-07-06T22:25:02.332Z,0
2017-07-06T22:30:02.783Z,0
2017-07-06T22:35:03.040Z,0
2017-07-06T22:40:02.313Z,0
2017-07-06T22:45:02.586Z,0
2017-07-06T22:50:03.052Z,0
2017-07-06T22:55:02.319Z,0
2017-07-06T23:00:03.036Z,0
2017-07-06T23:05:02.798Z,0
2017-07-06T23:10:03.159Z,0
2017-07-06T23:15:02.594Z,0
2017-07-06T23:20:03.113Z,0
2017-07-06T23:25:02.362Z,0
2017-07-06T23:30:02.646Z,0
2017-07-06T23:35:03.027Z,0
2017-07-06T23:40:02.523Z,0
2017-07-06T23:45:02.763Z,0
2017-07-06T23:50:03.200Z,0
2017-07-06T23:55:02.538Z,0
